Latest Weather Observations for Carters Bore

IDQ60801

Issued at 10:12 pm EST Tuesday 4 August 2020 (issued every 10 minutes, with the page automatically refreshed every 10 minutes)

About weather observations | Map of weather stations | Latest weather observations for QLD | Other Formats
Station Details ID: 037053 Name: CARTERS BORE Lat: -20.94 Lon: 139.30 Height: 396.0 m
Data from the previous 72 hours. | See also: Recent months at Carters Bore
Date/Time
EST
Temp
°C
App
Temp
°C
Dew
Point
°C
Rel
Hum
%
Delta-T
°C
Wind Press
QNH
hPa
Press
MSL
hPa
Rain since
9am
mm
Dir  Spd
km/h
Gust
km/h
Spd
kts
Gust
kts
04/10:00pm 17.0 14.7 -2.6 26 8.2 CALM 0 0 0 0 - - 0.0
04/09:30pm 17.7 15.4 -2.0 26 8.4 CALM 0 0 0 0 - - 0.0
04/09:00pm 17.8 14.7 -2.5 25 8.5 SE 4 6 2 3 - - 0.0
04/08:30pm 18.9 16.6 -2.7 23 9.1 CALM 0 0 0 0 - - 0.0
04/08:00pm 20.8 18.6 -1.7 22 9.9 CALM 0 0 0 0 - - 0.0
04/07:30pm 21.6 18.9 -2.3 20 10.4 S 2 4 1 2 - - 0.0
04/07:00pm 23.6 20.6 -2.1 18 11.5 SSW 4 4 2 2 - - 0.0
04/06:30pm 25.8 22.3 -2.8 15 12.8 S 6 7 3 4 - - 0.0
04/06:00pm 27.8 24.2 -2.1 14 13.8 WSW 7 11 4 6 - - 0.0
04/05:30pm 28.1 24.4 -2.9 13 14.1 SSW 7 11 4 6 - - 0.0
04/05:00pm 29.1 25.4 -3.2 12 14.8 WNW 7 13 4 7 - - 0.0
04/04:30pm 28.6 25.0 -3.6 12 14.6 SW 6 13 3 7 - - 0.0
04/04:00pm 29.2 26.0 -3.1 12 14.8 W 4 13 2 7 - - 0.0
04/03:30pm 28.9 25.5 -2.3 13 14.5 SSW 6 13 3 7 - - 0.0
04/03:00pm 28.6 24.4 -3.6 12 14.6 SSW 9 15 5 8 - - 0.0
04/02:30pm 28.7 25.2 -1.4 14 14.2 S 7 13 4 7 - - 0.0
04/02:00pm 28.7 24.8 -1.4 14 14.2 S 9 20 5 11 - - 0.0
04/01:30pm 28.4 24.9 -1.6 14 14.0 WSW 7 13 4 7 - - 0.0
04/01:00pm 27.9 24.4 -1.1 15 13.6 SSW 7 15 4 8 - - 0.0
04/12:30pm 28.1 23.8 -1.9 14 13.9 WSW 11 17 6 9 - - 0.0
04/12:00pm 27.7 23.9 -0.4 16 13.4 NNW 9 17 5 9 - - 0.0
04/11:30am 27.1 24.4 0.0 17 12.9 SSW 4 9 2 5 - - 0.0
04/11:00am 27.3 24.6 0.1 17 13.0 WNW 4 9 2 5 - - 0.0
04/10:30am 26.4 24.1 0.2 18 12.5 NNW 2 6 1 3 - - 0.0
04/10:00am 25.6 22.5 0.3 19 12.0 E 6 9 3 5 - - 0.0
04/09:30am 24.1 21.1 1.1 22 10.9 ENE 6 9 3 5 - - 0.0
04/09:00am 21.5 18.3 0.7 25 9.6 ENE 7 9 4 5 - - 0.0
04/08:30am 19.4 16.1 0.4 28 8.6 ENE 7 11 4 6 - - 0.0
04/08:00am 17.1 13.4 -0.1 31 7.6 ENE 9 13 5 7 - - 0.0
04/07:30am 16.1 12.8 -0.2 33 7.1 ENE 7 9 4 5 - - 0.0
04/07:00am 16.5 12.8 0.2 33 7.2 E 9 11 5 6 - - 0.0
04/06:30am 14.6 11.8 -0.7 35 6.5 ENE 4 6 2 3 - - 0.0
04/06:00am 16.1 12.9 -0.2 33 7.1 E 6 7 3 4 - - 0.0
04/05:30am 17.6 14.3 0.3 31 7.7 ESE 7 11 4 6 - - 0.0
04/05:00am 16.1 13.3 -0.6 32 7.2 E 4 6 2 3 - - 0.0
04/04:30am 17.0 13.9 0.2 32 7.4 E 6 7 3 4 - - 0.0
04/04:00am 17.3 14.3 0.5 32 7.5 E 6 7 3 4 - - 0.0
04/03:30am 16.7 14.0 0.4 33 7.2 NE 4 6 2 3 - - 0.0
04/03:00am 16.3 13.6 0.4 34 7.0 NE 4 7 2 4 - - 0.0
04/02:30am 16.4 13.7 0.5 34 7.0 ENE 4 7 2 4 - - 0.0
04/02:00am 16.3 13.2 0.0 33 7.1 ENE 6 7 3 4 - - 0.0
04/01:30am 16.5 12.8 -0.2 32 7.3 ENE 9 15 5 8 - - 0.0
04/01:00am 17.9 15.2 0.6 31 7.8 ESE 4 6 2 3 - - 0.0
04/12:30am 16.6 13.8 -0.1 32 7.3 SSE 4 4 2 2 - - 0.0
04/12:00am 18.3 15.3 0.9 31 7.9 SE 6 9 3 5 - - 0.0
 
Date/Time
EST
Temp
°C
App
Temp
°C
Dew
Point
°C
Rel
Hum
%
Delta-T
°C
Wind Press
QNH
hPa
Press
MSL
hPa
Rain since
9am
mm
Dir  Spd
km/h
Gust
km/h
Spd
kts
Gust
kts
03/11:30pm 17.5 15.5 0.2 31 7.7 CALM 0 4 0 2 - - 0.0
03/11:00pm 17.6 15.2 -0.6 29 7.9 SE 2 4 1 2 - - 0.0
03/10:30pm 18.7 15.4 -0.2 28 8.4 SSW 7 9 4 5 - - 0.0
03/10:00pm 19.8 16.9 1.3 29 8.6 SE 6 9 3 5 - - 0.0
03/09:30pm 17.8 14.8 0.5 31 7.7 SSE 6 7 3 4 - - 0.0
03/09:00pm 17.3 15.2 -0.9 29 7.9 CALM 0 0 0 0 - - 0.0
03/08:30pm 19.6 17.7 0.6 28 8.6 CALM 0 0 0 0 - - 0.0
03/08:00pm 19.8 17.8 -0.2 26 9.0 CALM 0 0 0 0 - - 0.0
03/07:30pm 21.2 19.3 0.4 25 9.6 CALM 0 0 0 0 - - 0.0
03/07:00pm 23.0 19.7 0.2 22 10.6 S 7 9 4 5 - - 0.0
03/06:30pm 24.7 21.4 0.3 20 11.5 SSW 7 7 4 4 - - 0.0
03/06:00pm 25.9 21.5 0.5 19 12.1 SSW 13 19 7 10 - - 0.0
03/05:30pm 26.5 22.5 0.3 18 12.5 SSW 11 17 6 9 - - 0.0
03/05:00pm 27.1 23.1 0.8 18 12.7 SSW 11 20 6 11 - - 0.0
03/04:30pm 27.2 23.5 0.1 17 13.0 SW 9 15 5 8 - - 0.0
03/04:00pm 27.5 24.5 1.1 18 12.9 W 6 13 3 7 - - 0.0
03/03:30pm 27.9 24.8 1.4 18 13.0 SSW 7 17 4 9 - - 0.0
03/03:00pm 27.9 24.9 0.6 17 13.2 WNW 6 11 3 6 - - 0.0
03/02:30pm 27.6 24.7 1.2 18 12.9 SSW 6 13 3 7 - - 0.0
03/02:00pm 26.7 23.7 1.9 20 12.2 S 7 15 4 8 - - 0.0
03/01:30pm 26.5 23.5 1.7 20 12.1 SW 7 13 4 7 - - 0.0
03/01:00pm 26.0 23.2 2.0 21 11.8 SW 6 13 3 7 - - 0.0
03/12:30pm 25.6 22.2 1.7 21 11.6 S 9 17 5 9 - - 0.0
03/12:00pm 25.3 22.5 2.1 22 11.3 S 6 9 3 5 - - 0.0
03/11:30am 24.8 21.5 2.3 23 11.0 S 9 13 5 7 - - 0.0
03/11:00am 24.9 22.4 1.7 22 11.2 E 4 9 2 5 - - 0.0
03/10:30am 24.3 21.4 2.5 24 10.7 ESE 7 13 4 7 - - 0.0
03/10:00am 23.3 19.7 2.7 26 10.0 E 11 17 6 9 - - 0.0
03/09:30am 22.3 19.0 2.4 27 9.6 E 9 15 5 8 - - 0.0
03/09:00am 21.1 18.2 2.4 29 8.9 E 7 15 4 8 - - 0.0
03/08:30am 20.1 17.2 2.5 31 8.4 E 7 11 4 6 - - 0.0
03/08:00am 19.0 15.8 2.8 34 7.7 E 9 13 5 7 - - 0.0
03/07:30am 16.2 13.4 2.9 41 6.2 E 7 11 4 6 - - 0.0
03/07:00am 14.7 12.0 2.6 44 5.5 ENE 6 9 3 5 - - 0.0
03/06:30am 15.2 11.9 2.7 43 5.7 ENE 9 13 5 7 - - 0.0
03/06:00am 15.4 12.6 2.9 43 5.8 ENE 7 7 4 4 - - 0.0
03/05:30am 15.2 12.9 2.7 43 5.7 ESE 4 9 2 5 - - 0.0
03/05:00am 15.7 13.5 3.2 43 5.8 E 4 6 2 3 - - 0.0
03/04:30am 15.9 13.3 3.0 42 6.0 E 6 6 3 3 - - 0.0
03/04:00am 16.2 13.4 2.9 41 6.2 ENE 7 9 4 5 - - 0.0
03/03:30am 16.4 13.2 3.1 41 6.2 NE 9 11 5 6 - - 0.0
03/03:00am 16.6 13.1 3.3 41 6.2 ENE 11 13 6 7 - - 0.0
03/02:30am 16.7 13.6 3.4 41 6.3 ENE 9 11 5 6 - - 0.0
03/02:00am 17.0 14.2 3.3 40 6.5 ENE 7 9 4 5 - - 0.0
03/01:30am 17.5 14.7 3.4 39 6.7 ENE 7 11 4 6 - - 0.0
03/01:00am 18.1 14.9 3.2 37 7.1 E 9 11 5 6 - - 0.0
03/12:30am 18.5 15.3 3.2 36 7.3 ENE 9 11 5 6 - - 0.0
03/12:00am 17.8 14.6 3.3 38 6.9 ENE 9 13 5 7 - - 0.0
 
Date/Time
EST
Temp
°C
App
Temp
°C
Dew
Point
°C
Rel
Hum
%
Delta-T
°C
Wind Press
QNH
hPa
Press
MSL
hPa
Rain since
9am
mm
Dir  Spd
km/h
Gust
km/h
Spd
kts
Gust
kts
02/11:30pm 18.8 15.7 3.4 36 7.4 ENE 9 13 5 7 - - 0.0
02/11:00pm 20.0 17.0 4.1 35 7.8 E 9 17 5 9 - - 0.0
02/10:30pm 18.8 16.0 3.4 36 7.4 E 7 9 4 5 - - 0.0
02/10:00pm 18.6 15.8 3.3 36 7.3 ENE 7 9 4 5 - - 0.0
02/09:30pm 19.1 16.4 3.7 36 7.4 E 7 11 4 6 - - 0.0
02/09:00pm 19.5 16.7 3.2 34 7.8 ENE 7 7 4 4 - - 0.0
02/08:30pm 19.6 17.0 3.3 34 7.8 ENE 6 9 3 5 - - 0.0
02/08:00pm 20.9 17.8 3.6 32 8.4 NE 9 9 5 5 - - 0.0
02/07:30pm 22.2 19.6 4.3 31 8.9 NE 7 9 4 5 - - 0.0
02/07:00pm 22.0 19.7 2.7 28 9.3 NE 4 6 2 3 - - 0.0
02/06:30pm 23.3 21.0 2.7 26 10.0 ESE 4 6 2 3 - - 0.0
02/06:00pm 24.8 22.1 2.9 24 10.8 ENE 6 9 3 5 - - 0.0
02/05:30pm 25.0 21.8 3.0 24 10.9 E 9 15 5 8 - - 0.0
02/05:00pm 25.6 22.2 4.1 25 10.9 E 11 17 6 9 - - 0.0
02/04:30pm 25.6 22.6 4.1 25 10.9 E 9 15 5 8 - - 0.0
02/04:00pm 25.6 22.6 4.1 25 10.9 ESE 9 19 5 10 - - 0.0
02/03:30pm 25.7 23.1 4.2 25 10.9 ESE 7 17 4 9 - - 0.0
02/03:00pm 25.5 23.2 4.6 26 10.7 N 6 9 3 5 - - 0.0
02/02:30pm 25.5 23.1 5.1 27 10.5 NNE 7 15 4 8 - - 0.0
02/02:00pm 25.3 21.9 3.9 25 10.8 NNE 11 20 6 11 - - 0.0
02/01:30pm 25.2 21.2 4.9 27 10.4 NNE 15 26 8 14 - - 0.0
02/01:00pm 24.5 20.6 5.3 29 9.9 NE 15 22 8 12 - - 0.0
02/12:30pm 24.5 20.3 5.8 30 9.7 NE 17 24 9 13 - - 0.0
02/12:00pm 23.6 19.1 6.0 32 9.1 NE 19 30 10 16 - - 0.0
02/11:30am 23.7 19.6 6.0 32 9.2 NE 17 30 9 16 - - 0.0
02/11:00am 23.3 18.8 6.1 33 8.9 NE 19 30 10 16 - - 0.0
02/10:30am 22.5 17.5 6.3 35 8.4 NE 22 33 12 18 - - 0.0
02/10:00am 21.7 16.6 6.0 36 8.1 NE 22 33 12 18 - - 0.0
02/09:30am 20.9 16.6 5.3 36 7.9 ENE 17 26 9 14 - - 0.0
02/09:00am 19.5 15.6 3.6 35 7.7 ENE 13 19 7 10 - - 0.0
02/08:30am 17.9 14.9 2.2 35 7.3 ENE 7 11 4 6 - - 0.0
02/08:00am 17.2 14.2 2.0 36 7.0 E 7 11 4 6 - - 0.0
02/07:30am 16.5 12.8 2.5 39 6.5 E 11 19 6 10 - - 0.0
02/07:00am 14.5 11.4 1.1 40 5.9 ENE 7 11 4 6 - - 0.0
02/06:30am 15.9 12.8 1.2 37 6.6 ESE 7 11 4 6 - - 0.0
02/06:00am 16.7 13.2 1.2 35 7.0 ESE 9 15 5 8 - - 0.0
02/05:30am 15.8 12.2 0.4 35 6.8 E 9 17 5 9 - - 0.0
02/05:00am 16.8 12.9 0.9 34 7.1 ESE 11 19 6 10 - - 0.0
02/04:30am 17.0 12.6 0.6 33 7.3 ESE 13 19 7 10 - - 0.0
02/04:00am 17.1 12.8 0.7 33 7.3 SE 13 20 7 11 - - 0.0
02/03:30am 15.9 12.6 0.1 34 6.9 ESE 7 11 4 6 - - 0.0
02/03:00am 16.7 13.2 1.2 35 7.0 SE 9 13 5 7 - - 0.0
02/02:30am 13.4 10.1 -1.0 37 6.0 ESE 6 7 3 4 - - 0.0
02/02:00am 14.0 10.9 -0.1 38 6.0 ESE 6 9 3 5 - - 0.0
02/01:30am 13.6 10.3 -1.6 35 6.3 E 6 6 3 3 - - 0.0
02/01:00am 15.4 12.1 0.4 36 6.6 ESE 7 9 4 5 - - 0.0
02/12:30am 14.9 11.7 -0.8 34 6.7 E 6 7 3 4 - - 0.0
02/12:00am 15.5 12.2 -1.1 32 7.0 E 6 9 3 5 - - 0.0
 
Date/Time
EST
Temp
°C
App
Temp
°C
Dew
Point
°C
Rel
Hum
%
Delta-T
°C
Wind Press
QNH
hPa
Press
MSL
hPa
Rain since
9am
mm
Dir  Spd
km/h
Gust
km/h
Spd
kts
Gust
kts
01/11:30pm 15.9 12.4 -1.6 30 7.4 ENE 7 11 4 6 - - 0.0
01/11:00pm 16.2 12.6 -2.3 28 7.7 ENE 7 9 4 5 - - 0.0
01/10:30pm 17.7 13.8 -1.5 27 8.2 E 9 11 5 6 - - 0.0

Other formats

Comma delimited format used in spreadsheet applications
http://www.bom.gov.au/fwo/IDQ60801/IDQ60801.94347.axf

JavaScript Object Notation format (JSON) in row-major order
http://www.bom.gov.au/fwo/IDQ60801/IDQ60801.94347.json

Data quality

Most of these data are generated automatically and are frequently updated. Quality checks on data are not normally performed. It is possible for incorrect values to appear. Refer to information at About Latest Weather Observations and please check the disclaimer before using these data.